aviador You're here:

LEBB Decoded Metar

BILBAO in SPAIN
Report Time2017-10-20 12:00:00
UTC Time2017-10-20 12:23:46
Flight Rules vfr VFR
Wind260° at 06 kt
W.Decomp.*RWY 28: 5.7 kt HW 1.9 kt LCW
RWY 30: 4.7 kt HW 3.7 kt LCW
W.Rank260° ranks 36
Current wind is above 260° avg. (5.7)
Visibility9999 m
Phenomena:N/A
Clouds:N/A
Expected CloudBase > 4,400 ft AGL from Temp-Dew spread
CeilingNone
Temp24°C (ISA +9)
Dew Point13°C (50% RH)
AAT22.7°C
QNH1016 hPa
Density Alt1,283 ft
Elevation112 ft
Report Wrong Elevation
Raw Report
LEBB 201200Z 26006KT 210V320 CAVOK 24/13 Q1016 NOSIG=

Extra information for LEBB:More info

Metar Taf Metar & Taf Last 4 Metars F.Rules Stats Wind Profile Meteogram Temp Stats Airport Information Weather charts Add Link Nearby VenuesMetar ALERT Operation Metar Decoded Social comments